Flight Track Log - Related Links

Times and Time Zones

All times are in EDT time to prevent confusion due to time zone crossing. See the SKW6228 flight status page for this flight to view local times or setup timezone preferences in your user account.

Time Position Orientation Groundspeed Altitude Reporting Facility
EDT Latitude Longitude Course Direction KTS MPH feet Rate Location/Type
Mon 09:07:41 AM 38.7114 -107.4708 66° East 320 368 17,200  Level Denver Center
Mon 09:08:41 AM 38.7456 -107.3703 65° Northeast 328 377 18,700 1,400 Climbing Denver Center
Mon 09:09:41 AM 38.7881 -107.2536 66° East 347 399 20,000 1,250 Climbing Denver Center
Mon 09:10:41 AM 38.8369 -107.1156 66° East 372 428 21,200 1,200 Climbing Denver Center
Mon 09:11:41 AM 38.8814 -106.9878 66° East 386 444 22,400 1,150 Climbing Denver Center
Mon 09:12:41 AM 38.9236 -106.8681 66° East 393 452 23,500 1,100 Climbing Denver Center
Mon 09:13:41 AM 38.9761 -106.7189 67° East 405 466 24,600 750 Climbing Denver Center
Mon 09:14:41 AM 39.0222 -106.5800 65° Northeast 413 475 25,000 250 Climbing Denver Center
Mon 09:15:41 AM 39.0744 -106.4331 67° East 426 490 25,100 50 Climbing Denver Center
Mon 09:16:41 AM 39.1203 -106.2967 68° East 446 513 25,100 -50 Level Denver Center
Mon 09:17:41 AM 39.1700 -106.1411 65° Northeast 459 528 25,000 -950 Descending Denver Center
Mon 09:18:41 AM 39.2256 -105.9853 68° East 459 528 23,200 -1,900 Descending Denver Center
Mon 09:19:41 AM 39.2750 -105.8294 66° East 464 534 21,200 -2,000 Descending Denver Center
Mon 09:20:41 AM 39.3261 -105.6842 67° East 449 517 19,200 -1,350 Descending Denver Center
Mon 09:21:41 AM 39.3711 -105.5467 58° Northeast 424 488 18,500 -800 Descending Denver Center
Mon 09:22:41 AM 39.4386 -105.4058 52° Northeast 412 474 17,600 -950 Descending Denver Center
Mon 09:23:41 AM 39.5106 -105.2864 53° Northeast 418 481 16,600 -1,000 Descending Denver Center
Mon 09:24:41 AM 39.5800 -105.1667 52° Northeast 418 481 15,600 -1,050 Descending Denver Center
Mon 09:25:41 AM 39.6494 -105.0519 53° Northeast 413 475 14,500 -1,050 Descending Denver Center
Mon 09:26:41 AM 39.7147 -104.9372 52° Northeast 408 470 13,500 -962 Descending Denver Center
Mon 09:27:27 AM 39.7667 -104.8500 79° East 384 442 12,800 -960 Descending Denver TRACON
Mon 09:28:21 AM 39.7833 -104.7333 90° East 388 447 11,900 -947 Descending Denver TRACON
Mon 09:29:21 AM 39.7833 -104.6167 90° East 321 369 11,000 -600 Descending Denver TRACON
Mon 09:30:21 AM 39.7833 -104.5167 75° East 262 302 10,700 -1,250 Descending Denver TRACON
Mon 09:31:21 AM 39.8000 -104.4333 75° East 243 280 8,500 -2,200 Descending Denver TRACON

Login

Don't have an account? Register now (free) for customized features, flight alerts, and more!